This is the latest recevied weather packets stored in our database for station/object LRTZ. If no packets are shown the sender has not sent any weather packets the latest 10 day(s).
| Time | Temp. | Humidity | Pressure | Rain* | Wind** | Luminosity | Snow |
|---|---|---|---|---|---|---|---|
| 1777583943 | 7.22° C | 66% | 1021 hPa | - | - | - | - |
| 1777583045 | 7.22° C | 66% | 1021 hPa | - | - | - | - |
| 1777569542 | 7.78° C | 87% | 1021 hPa | - | - | - | - |
| 1777564143 | 8.89° C | 87% | 1021 hPa | - | - | - | - |
| 1777563243 | 8.89° C | 87% | 1021 hPa | - | - | - | - |
| 1777561443 | 8.89° C | 87% | 1021 hPa | - | - | - | - |
| 1777558743 | 8.89° C | 82% | 1021 hPa | - | - | - | - |
| 1777556042 | 10° C | 82% | 1022 hPa | - | - | - | - |
| 1777555142 | 10° C | 82% | 1022 hPa | - | - | - | - |
| 1777554243 | 10° C | 82% | 1022 hPa | - | - | - | - |
| 1777551539 | 8.89° C | 87% | 1022 hPa | - | - | - | - |
| 1777550643 | 8.89° C | 87% | 1022 hPa | - | - | - | - |
| 1777549742 | 8.89° C | 87% | 1020 hPa | - | - | - | - |
| 1777547936 | 8.89° C | 87% | 1020 hPa | - | - | - | - |
| 1777547043 | 8.89° C | 87% | 1020 hPa | - | - | - | - |
| 1777545245 | 10° C | 88% | 1022 hPa | - | - | - | - |
| 1777544365 | 10° C | 88% | 1022 hPa | - | - | - | - |
| 1777541642 | 10° C | 88% | 1022 hPa | - | - | - | - |
| 1777540739 | 10° C | 88% | 1022 hPa | - | - | - | - |
| 1777539842 | 10° C | 88% | 1022 hPa | - | - | - | - |
| 1777538970 | 18.89° C | 49% | 1022 hPa | - | - | - | - |
| 1777537152 | 18.89° C | 49% | 1022 hPa | - | - | - | - |
| 1777536243 | 18.89° C | 49% | 1022 hPa | - | - | - | - |
| 1777534443 | 8.89° C | 94% | 1022 hPa | - | - | - | - |
| 1777533539 | 8.89° C | 94% | 1022 hPa | - | - | - | - |
* Rain since midnight (hover to see other rain measurements)
** Current wind speed in m/s (hover to see current wind gust speed)